sensor_id;sensor_type;location;lat;lon;timestamp;pressure;altitude;pressure_sealevel;temperature
76007;BMP280;64699;0.000;0.000;2023-05-10T00:01:41;101227.88;;;17.36
76007;BMP280;64699;0.000;0.000;2023-05-10T00:04:06;101225.63;;;17.35
76007;BMP280;64699;0.000;0.000;2023-05-10T00:06:32;101224.91;;;17.34
76007;BMP280;64699;0.000;0.000;2023-05-10T00:08:57;101223.66;;;17.35
76007;BMP280;64699;0.000;0.000;2023-05-10T00:11:23;101224.13;;;17.34
76007;BMP280;64699;0.000;0.000;2023-05-10T00:13:48;101220.13;;;17.35
76007;BMP280;64699;0.000;0.000;2023-05-10T00:16:13;101212.66;;;17.35
76007;BMP280;64699;0.000;0.000;2023-05-10T00:18:38;101214.63;;;17.35
76007;BMP280;64699;0.000;0.000;2023-05-10T00:21:04;101212.66;;;17.35
76007;BMP280;64699;0.000;0.000;2023-05-10T00:23:29;101218.16;;;17.35
76007;BMP280;64699;0.000;0.000;2023-05-10T00:25:54;101212.88;;;17.37
76007;BMP280;64699;0.000;0.000;2023-05-10T00:28:20;101207.38;;;17.37
76007;BMP280;64699;0.000;0.000;2023-05-10T00:30:45;101206.13;;;17.38
76007;BMP280;64699;0.000;0.000;2023-05-10T00:33:10;101209.16;;;17.40
76007;BMP280;64699;0.000;0.000;2023-05-10T00:35:36;101198.66;;;17.39
76007;BMP280;64699;0.000;0.000;2023-05-10T00:38:02;101198.66;;;17.39
76007;BMP280;64699;0.000;0.000;2023-05-10T00:40:28;101204.16;;;17.39
76007;BMP280;64699;0.000;0.000;2023-05-10T00:42:53;101197.91;;;17.38
76007;BMP280;64699;0.000;0.000;2023-05-10T00:45:19;101190.91;;;17.37
76007;BMP280;64699;0.000;0.000;2023-05-10T00:47:44;101193.16;;;17.39
76007;BMP280;64699;0.000;0.000;2023-05-10T00:50:09;101196.66;;;17.39
76007;BMP280;64699;0.000;0.000;2023-05-10T00:52:35;101196.66;;;17.39
76007;BMP280;64699;0.000;0.000;2023-05-10T00:55:00;101193.91;;;17.39
76007;BMP280;64699;0.000;0.000;2023-05-10T00:57:26;101193.16;;;17.39
76007;BMP280;64699;0.000;0.000;2023-05-10T00:59:51;101191.91;;;17.40
76007;BMP280;64699;0.000;0.000;2023-05-10T01:02:17;101193.91;;;17.39
76007;BMP280;64699;0.000;0.000;2023-05-10T01:04:42;101184.94;;;17.39
76007;BMP280;64699;0.000;0.000;2023-05-10T01:07:08;101183.44;;;17.38
76007;BMP280;64699;0.000;0.000;2023-05-10T01:09:33;101193.16;;;17.39
76007;BMP280;64699;0.000;0.000;2023-05-10T01:11:58;101171.94;;;17.39
76007;BMP280;64699;0.000;0.000;2023-05-10T01:14:24;101185.41;;;17.37
76007;BMP280;64699;0.000;0.000;2023-05-10T01:16:50;101181.69;;;17.35
76007;BMP280;64699;0.000;0.000;2023-05-10T01:19:19;101159.50;;;17.27
76007;BMP280;64699;0.000;0.000;2023-05-10T01:21:53;101175.91;;;17.38
76007;BMP280;64699;0.000;0.000;2023-05-10T01:29:38;101171.19;;;17.39
76007;BMP280;64699;0.000;0.000;2023-05-10T01:34:46;101171.94;;;17.39
76007;BMP280;64699;0.000;0.000;2023-05-10T01:37:15;101167.47;;;17.36
76007;BMP280;64699;0.000;0.000;2023-05-10T01:42:29;101171.44;;;17.35
76007;BMP280;64699;0.000;0.000;2023-05-10T01:50:01;101164.94;;;17.38
76007;BMP280;64699;0.000;0.000;2023-05-10T01:52:32;101167.22;;;17.34
76007;BMP280;64699;0.000;0.000;2023-05-10T01:55:00;101154.22;;;17.35
76007;BMP280;64699;0.000;0.000;2023-05-10T01:57:27;101161.50;;;17.32
76007;BMP280;64699;0.000;0.000;2023-05-10T01:59:55;101158.97;;;17.34
76007;BMP280;64699;0.000;0.000;2023-05-10T02:02:21;101158.75;;;17.32
76007;BMP280;64699;0.000;0.000;2023-05-10T02:04:47;101163.94;;;17.36
76007;BMP280;64699;0.000;0.000;2023-05-10T02:07:13;101158.75;;;17.32
76007;BMP280;64699;0.000;0.000;2023-05-10T02:09:39;101158.22;;;17.34
76007;BMP280;64699;0.000;0.000;2023-05-10T02:12:05;101153.47;;;17.34
76007;BMP280;64699;0.000;0.000;2023-05-10T02:14:32;101156.22;;;17.34
76007;BMP280;64699;0.000;0.000;2023-05-10T02:16:59;101156.00;;;17.32
76007;BMP280;64699;0.000;0.000;2023-05-10T02:19:24;101149.22;;;17.33
76007;BMP280;64699;0.000;0.000;2023-05-10T02:21:50;101151.97;;;17.33
76007;BMP280;64699;0.000;0.000;2023-05-10T02:24:16;101154.47;;;17.31
76007;BMP280;64699;0.000;0.000;2023-05-10T02:26:42;101156.72;;;17.33
76007;BMP280;64699;0.000;0.000;2023-05-10T02:29:09;101151.97;;;17.33
76007;BMP280;64699;0.000;0.000;2023-05-10T02:31:34;101149.75;;;17.32
76007;BMP280;64699;0.000;0.000;2023-05-10T02:34:00;101157.22;;;17.31
76007;BMP280;64699;0.000;0.000;2023-05-10T02:36:26;101151.97;;;17.33
76007;BMP280;64699;0.000;0.000;2023-05-10T02:38:52;101153.47;;;17.34
76007;BMP280;64699;0.000;0.000;2023-05-10T02:41:18;101155.25;;;17.32
76007;BMP280;64699;0.000;0.000;2023-05-10T02:43:44;101158.47;;;17.30
76007;BMP280;64699;0.000;0.000;2023-05-10T02:46:10;101148.72;;;17.29
76007;BMP280;64699;0.000;0.000;2023-05-10T02:48:35;101154.47;;;17.31
76007;BMP280;64699;0.000;0.000;2023-05-10T02:51:03;101167.00;;;17.32
76007;BMP280;64699;0.000;0.000;2023-05-10T02:53:33;101163.22;;;17.30
76007;BMP280;64699;0.000;0.000;2023-05-10T02:56:00;101169.47;;;17.30
76007;BMP280;64699;0.000;0.000;2023-05-10T02:58:26;101165.47;;;17.31
76007;BMP280;64699;0.000;0.000;2023-05-10T03:00:51;101168.72;;;17.30
76007;BMP280;64699;0.000;0.000;2023-05-10T03:03:17;101153.75;;;17.31
76007;BMP280;64699;0.000;0.000;2023-05-10T03:05:42;101151.47;;;17.29
76007;BMP280;64699;0.000;0.000;2023-05-10T03:08:07;101167.97;;;17.29
76007;BMP280;64699;0.000;0.000;2023-05-10T03:10:33;101159.72;;;17.29
76007;BMP280;64699;0.000;0.000;2023-05-10T03:13:07;101160.19;;;17.28
76007;BMP280;64699;0.000;0.000;2023-05-10T03:18:22;101169.22;;;17.28
76007;BMP280;64699;0.000;0.000;2023-05-10T03:20:48;101158.72;;;17.27
76007;BMP280;64699;0.000;0.000;2023-05-10T03:25:42;101166.25;;;17.26
76007;BMP280;64699;0.000;0.000;2023-05-10T03:28:08;101158.72;;;17.27
76007;BMP280;64699;0.000;0.000;2023-05-10T03:30:34;101153.25;;;17.27
76007;BMP280;64699;0.000;0.000;2023-05-10T03:33:04;101159.50;;;17.27
76007;BMP280;64699;0.000;0.000;2023-05-10T03:35:29;101156.50;;;17.25
76007;BMP280;64699;0.000;0.000;2023-05-10T03:37:54;101155.00;;;17.24
76007;BMP280;64699;0.000;0.000;2023-05-10T03:40:20;101157.22;;;17.26
76007;BMP280;64699;0.000;0.000;2023-05-10T03:42:45;101157.22;;;17.26
76007;BMP280;64699;0.000;0.000;2023-05-10T03:45:10;101155.75;;;17.25
76007;BMP280;64699;0.000;0.000;2023-05-10T03:47:35;101158.97;;;17.23
76007;BMP280;64699;0.000;0.000;2023-05-10T03:50:00;101155.00;;;17.24
76007;BMP280;64699;0.000;0.000;2023-05-10T03:52:27;101158.22;;;17.23
76007;BMP280;64699;0.000;0.000;2023-05-10T03:54:52;101162.47;;;17.24
76007;BMP280;64699;0.000;0.000;2023-05-10T03:57:17;101146.50;;;17.22
76007;BMP280;64699;0.000;0.000;2023-05-10T03:59:43;101158.22;;;17.23
76007;BMP280;64699;0.000;0.000;2023-05-10T04:02:08;101158.97;;;17.23
76007;BMP280;64699;0.000;0.000;2023-05-10T04:04:33;101158.97;;;17.23
76007;BMP280;64699;0.000;0.000;2023-05-10T04:06:58;101166.47;;;17.23
76007;BMP280;64699;0.000;0.000;2023-05-10T04:09:23;101160.25;;;17.22
76007;BMP280;64699;0.000;0.000;2023-05-10T04:11:49;101157.50;;;17.22
76007;BMP280;64699;0.000;0.000;2023-05-10T04:14:14;101166.97;;;17.21
76007;BMP280;64699;0.000;0.000;2023-05-10T04:16:39;101168.22;;;17.20
76007;BMP280;64699;0.000;0.000;2023-05-10T04:19:04;101167.47;;;17.20
76007;BMP280;64699;0.000;0.000;2023-05-10T04:21:30;101161.03;;;17.17
76007;BMP280;64699;0.000;0.000;2023-05-10T04:23:55;101162.50;;;17.18
76007;BMP280;64699;0.000;0.000;2023-05-10T04:26:20;101158.28;;;17.17
76007;BMP280;64699;0.000;0.000;2023-05-10T04:28:47;101157.72;;;17.19
76007;BMP280;64699;0.000;0.000;2023-05-10T04:31:12;101166.50;;;17.17
76007;BMP280;64699;0.000;0.000;2023-05-10T04:33:37;101159.50;;;17.16
76007;BMP280;64699;0.000;0.000;2023-05-10T04:36:02;101166.50;;;17.17
76007;BMP280;64699;0.000;0.000;2023-05-10T04:38:28;101161.72;;;17.18
76007;BMP280;64699;0.000;0.000;2023-05-10T04:40:53;101161.72;;;17.18
76007;BMP280;64699;0.000;0.000;2023-05-10T04:43:19;101166.50;;;17.17
76007;BMP280;64699;0.000;0.000;2023-05-10T04:45:44;101168.97;;;17.15
76007;BMP280;64699;0.000;0.000;2023-05-10T04:48:09;101173.72;;;17.15
76007;BMP280;64699;0.000;0.000;2023-05-10T04:50:34;101168.97;;;17.15
76007;BMP280;64699;0.000;0.000;2023-05-10T04:53:00;101164.72;;;17.14
76007;BMP280;64699;0.000;0.000;2023-05-10T04:55:25;101178.47;;;17.14
76007;BMP280;64699;0.000;0.000;2023-05-10T04:57:51;101168.25;;;17.15
76007;BMP280;64699;0.000;0.000;2023-05-10T05:00:17;101167.47;;;17.14
76007;BMP280;64699;0.000;0.000;2023-05-10T05:02:43;101167.47;;;17.14
76007;BMP280;64699;0.000;0.000;2023-05-10T05:05:09;101181.97;;;17.20
76007;BMP280;64699;0.000;0.000;2023-05-10T05:07:34;101170.72;;;17.24
76007;BMP280;64699;0.000;0.000;2023-05-10T05:09:59;101175.44;;;17.23
76007;BMP280;64699;0.000;0.000;2023-05-10T05:12:24;101173.97;;;17.22
76007;BMP280;64699;0.000;0.000;2023-05-10T05:14:50;101172.47;;;17.21
76007;BMP280;64699;0.000;0.000;2023-05-10T05:17:15;101172.22;;;17.19
76007;BMP280;64699;0.000;0.000;2023-05-10T05:19:40;101166.72;;;17.19
76007;BMP280;64699;0.000;0.000;2023-05-10T05:22:06;101172.47;;;17.21
76007;BMP280;64699;0.000;0.000;2023-05-10T05:24:34;101166.72;;;17.19
76007;BMP280;64699;0.000;0.000;2023-05-10T05:27:00;101176.47;;;17.20
76007;BMP280;64699;0.000;0.000;2023-05-10T05:29:25;101170.97;;;17.20
76007;BMP280;64699;0.000;0.000;2023-05-10T05:31:51;101168.72;;;17.19
76007;BMP280;64699;0.000;0.000;2023-05-10T05:34:16;101174.22;;;17.19
76007;BMP280;64699;0.000;0.000;2023-05-10T05:36:41;101164.72;;;17.20
76007;BMP280;64699;0.000;0.000;2023-05-10T05:39:06;101174.97;;;17.19
76007;BMP280;64699;0.000;0.000;2023-05-10T05:41:32;101180.25;;;17.17
76007;BMP280;64699;0.000;0.000;2023-05-10T05:43:57;101167.22;;;17.18
76007;BMP280;64699;0.000;0.000;2023-05-10T05:46:22;101176.72;;;17.17
76007;BMP280;64699;0.000;0.000;2023-05-10T05:48:47;101170.47;;;17.16
76007;BMP280;64699;0.000;0.000;2023-05-10T05:51:13;101172.00;;;17.17
76007;BMP280;64699;0.000;0.000;2023-05-10T05:53:38;101174.22;;;17.19
76007;BMP280;64699;0.000;0.000;2023-05-10T05:56:03;101178.19;;;17.18
76007;BMP280;64699;0.000;0.000;2023-05-10T05:58:28;101177.50;;;17.17
76007;BMP280;64699;0.000;0.000;2023-05-10T06:00:54;101177.50;;;17.17
76007;BMP280;64699;0.000;0.000;2023-05-10T06:03:19;101183.69;;;17.18
76007;BMP280;64699;0.000;0.000;2023-05-10T06:05:44;101179.47;;;17.17
76007;BMP280;64699;0.000;0.000;2023-05-10T06:08:10;101179.47;;;17.17
76007;BMP280;64699;0.000;0.000;2023-05-10T06:10:35;101181.47;;;17.16
76007;BMP280;64699;0.000;0.000;2023-05-10T06:13:00;101175.97;;;17.16
76007;BMP280;64699;0.000;0.000;2023-05-10T06:15:26;101181.47;;;17.16
76007;BMP280;64699;0.000;0.000;2023-05-10T06:17:51;101179.97;;;17.15
76007;BMP280;64699;0.000;0.000;2023-05-10T06:20:16;101175.72;;;17.14
76007;BMP280;64699;0.000;0.000;2023-05-10T06:22:42;101181.72;;;17.13
76007;BMP280;64699;0.000;0.000;2023-05-10T06:25:07;101175.50;;;17.12
76007;BMP280;64699;0.000;0.000;2023-05-10T06:27:32;101169.25;;;17.12
76007;BMP280;64699;0.000;0.000;2023-05-10T06:29:58;101174.72;;;17.12
76007;BMP280;64699;0.000;0.000;2023-05-10T06:32:23;101179.47;;;17.11
76007;BMP280;64699;0.000;0.000;2023-05-10T06:34:48;101178.00;;;17.10
76007;BMP280;64699;0.000;0.000;2023-05-10T06:37:13;101171.72;;;17.10
76007;BMP280;64699;0.000;0.000;2023-05-10T06:39:38;101169.75;;;17.10
76007;BMP280;64699;0.000;0.000;2023-05-10T06:42:04;101178.00;;;17.10
76007;BMP280;64699;0.000;0.000;2023-05-10T06:44:29;101170.50;;;17.11
76007;BMP280;64699;0.000;0.000;2023-05-10T06:46:54;101169.75;;;17.10
76007;BMP280;64699;0.000;0.000;2023-05-10T06:49:20;101175.25;;;17.10
76007;BMP280;64699;0.000;0.000;2023-05-10T06:51:46;101175.72;;;17.09
76007;BMP280;64699;0.000;0.000;2023-05-10T06:54:11;101175.97;;;17.11
76007;BMP280;64699;0.000;0.000;2023-05-10T06:56:36;101169.47;;;17.08
76007;BMP280;64699;0.000;0.000;2023-05-10T06:59:01;101175.72;;;17.09
76007;BMP280;64699;0.000;0.000;2023-05-10T07:01:26;101163.75;;;17.06
76007;BMP280;64699;0.000;0.000;2023-05-10T07:03:52;101172.75;;;17.07
76007;BMP280;64699;0.000;0.000;2023-05-10T07:06:17;101156.28;;;17.07
76007;BMP280;64699;0.000;0.000;2023-05-10T07:08:42;101161.00;;;17.06
76007;BMP280;64699;0.000;0.000;2023-05-10T07:11:07;101154.28;;;17.07
76007;BMP280;64699;0.000;0.000;2023-05-10T07:13:33;101154.78;;;17.06
76007;BMP280;64699;0.000;0.000;2023-05-10T07:15:59;101154.03;;;17.05
76007;BMP280;64699;0.000;0.000;2023-05-10T07:18:24;101165.00;;;17.05
76007;BMP280;64699;0.000;0.000;2023-05-10T07:20:50;101147.03;;;17.04
76007;BMP280;64699;0.000;0.000;2023-05-10T07:23:15;101156.78;;;17.05
76007;BMP280;64699;0.000;0.000;2023-05-10T07:25:44;101153.25;;;17.05
76007;BMP280;64699;0.000;0.000;2023-05-10T07:28:09;101159.25;;;17.03
76007;BMP280;64699;0.000;0.000;2023-05-10T07:30:35;101166.97;;;17.05
76007;BMP280;64699;0.000;0.000;2023-05-10T07:33:00;101160.53;;;17.02
76007;BMP280;64699;0.000;0.000;2023-05-10T07:35:26;101161.28;;;17.03
76007;BMP280;64699;0.000;0.000;2023-05-10T07:37:51;101161.78;;;17.01
76007;BMP280;64699;0.000;0.000;2023-05-10T07:40:16;101168.00;;;17.02
76007;BMP280;64699;0.000;0.000;2023-05-10T07:42:41;101167.50;;;17.03
76007;BMP280;64699;0.000;0.000;2023-05-10T07:45:07;101164.53;;;17.01
76007;BMP280;64699;0.000;0.000;2023-05-10T07:47:32;101147.28;;;17.01
76007;BMP280;64699;0.000;0.000;2023-05-10T07:49:57;101157.50;;;17.00
76007;BMP280;64699;0.000;0.000;2023-05-10T07:52:22;101172.75;;;17.01
76007;BMP280;64699;0.000;0.000;2023-05-10T07:54:47;101164.53;;;17.01
76007;BMP280;64699;0.000;0.000;2023-05-10T07:57:13;101153.25;;;16.99
76007;BMP280;64699;0.000;0.000;2023-05-10T07:59:40;101163.00;;;17.00
76007;BMP280;64699;0.000;0.000;2023-05-10T08:02:06;101151.75;;;16.98
76007;BMP280;64699;0.000;0.000;2023-05-10T08:04:31;101153.03;;;16.97
76007;BMP280;64699;0.000;0.000;2023-05-10T08:06:56;101153.81;;;16.98
76007;BMP280;64699;0.000;0.000;2023-05-10T08:09:22;101146.78;;;16.97
76007;BMP280;64699;0.000;0.000;2023-05-10T08:11:48;101155.78;;;16.97
76007;BMP280;64699;0.000;0.000;2023-05-10T08:14:14;101135.06;;;16.96
76007;BMP280;64699;0.000;0.000;2023-05-10T08:16:39;101158.53;;;16.97
76007;BMP280;64699;0.000;0.000;2023-05-10T08:19:04;101141.31;;;16.97
76007;BMP280;64699;0.000;0.000;2023-05-10T08:21:29;101142.06;;;16.97
76007;BMP280;64699;0.000;0.000;2023-05-10T08:23:56;101147.56;;;16.97
76007;BMP280;64699;0.000;0.000;2023-05-10T08:26:21;101133.56;;;16.95
76007;BMP280;64699;0.000;0.000;2023-05-10T08:28:46;101139.81;;;16.96
76007;BMP280;64699;0.000;0.000;2023-05-10T08:31:11;101140.56;;;16.96
76007;BMP280;64699;0.000;0.000;2023-05-10T08:33:37;101146.06;;;16.96
76007;BMP280;64699;0.000;0.000;2023-05-10T08:36:02;101140.56;;;16.96
76007;BMP280;64699;0.000;0.000;2023-05-10T08:38:27;101144.56;;;16.95
76007;BMP280;64699;0.000;0.000;2023-05-10T08:40:54;101143.31;;;16.96
76007;BMP280;64699;0.000;0.000;2023-05-10T08:43:21;101151.53;;;16.96
76007;BMP280;64699;0.000;0.000;2023-05-10T08:45:46;101144.56;;;16.95
76007;BMP280;64699;0.000;0.000;2023-05-10T08:48:13;101145.28;;;16.96
76007;BMP280;64699;0.000;0.000;2023-05-10T08:50:39;101139.06;;;16.95
76007;BMP280;64699;0.000;0.000;2023-05-10T08:53:12;101138.31;;;16.95
76007;BMP280;64699;0.000;0.000;2023-05-10T08:55:38;101143.78;;;16.95
76007;BMP280;64699;0.000;0.000;2023-05-10T08:58:05;101154.03;;;16.94
76007;BMP280;64699;0.000;0.000;2023-05-10T09:00:30;101132.81;;;16.95
76007;BMP280;64699;0.000;0.000;2023-05-10T09:02:59;101150.53;;;16.94
76007;BMP280;64699;0.000;0.000;2023-05-10T09:05:24;101147.31;;;16.95
76007;BMP280;64699;0.000;0.000;2023-05-10T09:07:50;101137.56;;;16.94
76007;BMP280;64699;0.000;0.000;2023-05-10T09:10:15;101122.38;;;16.93
76007;BMP280;64699;0.000;0.000;2023-05-10T09:12:41;101130.59;;;16.93
76007;BMP280;64699;0.000;0.000;2023-05-10T09:15:06;101139.53;;;16.94
76007;BMP280;64699;0.000;0.000;2023-05-10T09:17:32;101134.81;;;16.94
76007;BMP280;64699;0.000;0.000;2023-05-10T09:20:01;101110.13;;;16.94
76007;BMP280;64699;0.000;0.000;2023-05-10T09:22:26;101093.66;;;16.94
76007;BMP280;64699;0.000;0.000;2023-05-10T09:27:29;101117.84;;;16.96
76007;BMP280;64699;0.000;0.000;2023-05-10T09:29:55;101105.38;;;16.95
76007;BMP280;64699;0.000;0.000;2023-05-10T09:32:20;101134.31;;;16.96
76007;BMP280;64699;0.000;0.000;2023-05-10T09:34:46;101113.13;;;16.96
76007;BMP280;64699;0.000;0.000;2023-05-10T09:37:14;101107.38;;;16.94
76007;BMP280;64699;0.000;0.000;2023-05-10T09:39:39;101117.09;;;16.95
76007;BMP280;64699;0.000;0.000;2023-05-10T09:42:07;101117.09;;;16.95
76007;BMP280;64699;0.000;0.000;2023-05-10T09:44:32;101123.31;;;16.96
76007;BMP280;64699;0.000;0.000;2023-05-10T09:46:58;101125.34;;;16.95
76007;BMP280;64699;0.000;0.000;2023-05-10T09:49:23;101122.59;;;16.95
76007;BMP280;64699;0.000;0.000;2023-05-10T09:52:02;101133.56;;;16.95
76007;BMP280;64699;0.000;0.000;2023-05-10T09:54:27;101119.84;;;16.95
76007;BMP280;64699;0.000;0.000;2023-05-10T09:56:53;101120.59;;;16.96
76007;BMP280;64699;0.000;0.000;2023-05-10T09:59:18;101119.84;;;16.95
76007;BMP280;64699;0.000;0.000;2023-05-10T10:01:44;101110.13;;;16.94
76007;BMP280;64699;0.000;0.000;2023-05-10T10:04:14;101101.88;;;16.94
76007;BMP280;64699;0.000;0.000;2023-05-10T10:06:39;101106.59;;;16.94
76007;BMP280;64699;0.000;0.000;2023-05-10T10:09:05;101104.63;;;16.94
76007;BMP280;64699;0.000;0.000;2023-05-10T10:11:31;101111.63;;;16.95
76007;BMP280;64699;0.000;0.000;2023-05-10T10:13:56;101104.59;;;17.05
76007;BMP280;64699;0.000;0.000;2023-05-10T10:16:21;101101.59;;;17.03
76007;BMP280;64699;0.000;0.000;2023-05-10T10:18:47;101108.34;;;16.97
76007;BMP280;64699;0.000;0.000;2023-05-10T10:21:16;101098.63;;;16.96
76007;BMP280;64699;0.000;0.000;2023-05-10T10:23:41;101102.63;;;16.95
76007;BMP280;64699;0.000;0.000;2023-05-10T10:26:06;101090.41;;;16.90
76007;BMP280;64699;0.000;0.000;2023-05-10T10:31:15;101083.19;;;16.93
76007;BMP280;64699;0.000;0.000;2023-05-10T10:33:55;101078.69;;;16.90
76007;BMP280;64699;0.000;0.000;2023-05-10T10:36:22;101076.69;;;16.90
76007;BMP280;64699;0.000;0.000;2023-05-10T10:49:43;101076.19;;;16.92
76007;BMP280;64699;0.000;0.000;2023-05-10T10:57:42;101049.50;;;16.87
76007;BMP280;64699;0.000;0.000;2023-05-10T11:00:27;101050.25;;;16.87
76007;BMP280;64699;0.000;0.000;2023-05-10T11:02:57;101060.22;;;16.90
76007;BMP280;64699;0.000;0.000;2023-05-10T11:05:23;101064.19;;;16.89
76007;BMP280;64699;0.000;0.000;2023-05-10T11:07:52;101049.22;;;16.90
76007;BMP280;64699;0.000;0.000;2023-05-10T11:10:19;101053.47;;;16.91
76007;BMP280;64699;0.000;0.000;2023-05-10T11:12:51;101065.44;;;16.88
76007;BMP280;64699;0.000;0.000;2023-05-10T11:15:16;101059.75;;;16.86
76007;BMP280;64699;0.000;0.000;2023-05-10T11:17:42;101056.97;;;16.92
76007;BMP280;64699;0.000;0.000;2023-05-10T11:20:08;101053.47;;;16.91
76007;BMP280;64699;0.000;0.000;2023-05-10T11:22:50;101049.22;;;16.90
76007;BMP280;64699;0.000;0.000;2023-05-10T11:25:18;101040.53;;;16.86
76007;BMP280;64699;0.000;0.000;2023-05-10T11:27:43;101043.75;;;16.90
76007;BMP280;64699;0.000;0.000;2023-05-10T11:30:09;101034.25;;;16.91
76007;BMP280;64699;0.000;0.000;2023-05-10T11:32:37;101038.25;;;16.90
76007;BMP280;64699;0.000;0.000;2023-05-10T11:35:09;101047.50;;;16.87
76007;BMP280;64699;0.000;0.000;2023-05-10T11:37:34;101038.00;;;16.88
76007;BMP280;64699;0.000;0.000;2023-05-10T11:40:00;101043.75;;;16.90
76007;BMP280;64699;0.000;0.000;2023-05-10T11:42:25;101045.00;;;16.89
76007;BMP280;64699;0.000;0.000;2023-05-10T11:44:50;101034.00;;;16.89
76007;BMP280;64699;0.000;0.000;2023-05-10T11:47:15;101038.25;;;16.90
76007;BMP280;64699;0.000;0.000;2023-05-10T11:49:44;101033.28;;;16.83
76007;BMP280;64699;0.000;0.000;2023-05-10T11:52:10;101026.28;;;16.88
76007;BMP280;64699;0.000;0.000;2023-05-10T11:54:36;101034.75;;;16.84
76007;BMP280;64699;0.000;0.000;2023-05-10T11:57:01;101019.56;;;16.83
76007;BMP280;64699;0.000;0.000;2023-05-10T11:59:26;101019.78;;;16.85
76007;BMP280;64699;0.000;0.000;2023-05-10T12:01:52;101018.28;;;16.84
76007;BMP280;64699;0.000;0.000;2023-05-10T12:04:17;101029.56;;;16.86
76007;BMP280;64699;0.000;0.000;2023-05-10T12:06:42;101030.78;;;16.85
76007;BMP280;64699;0.000;0.000;2023-05-10T12:09:08;101022.81;;;16.87
76007;BMP280;64699;0.000;0.000;2023-05-10T12:11:36;101029.06;;;16.82
76007;BMP280;64699;0.000;0.000;2023-05-10T12:14:03;101025.06;;;16.83
76007;BMP280;64699;0.000;0.000;2023-05-10T12:16:29;101022.56;;;16.80
76007;BMP280;64699;0.000;0.000;2023-05-10T12:18:58;101019.06;;;16.85
76007;BMP280;64699;0.000;0.000;2023-05-10T12:21:24;101009.31;;;16.84
76007;BMP280;64699;0.000;0.000;2023-05-10T12:23:53;101018.28;;;16.84
76007;BMP280;64699;0.000;0.000;2023-05-10T12:26:21;101022.81;;;16.87
76007;BMP280;64699;0.000;0.000;2023-05-10T12:28:46;101019.78;;;16.85
76007;BMP280;64699;0.000;0.000;2023-05-10T12:31:12;101020.56;;;16.80
76007;BMP280;64699;0.000;0.000;2023-05-10T12:33:41;101014.84;;;16.78
76007;BMP280;64699;0.000;0.000;2023-05-10T12:36:10;101009.34;;;16.78
76007;BMP280;64699;0.000;0.000;2023-05-10T12:38:37;101016.59;;;16.81
76007;BMP280;64699;0.000;0.000;2023-05-10T12:41:06;101003.81;;;16.89
76007;BMP280;64699;0.000;0.000;2023-05-10T12:43:32;101012.31;;;16.91
76007;BMP280;64699;0.000;0.000;2023-05-10T12:45:58;100981.41;;;16.74
76007;BMP280;64699;0.000;0.000;2023-05-10T12:48:23;101004.84;;;16.86
76007;BMP280;64699;0.000;0.000;2023-05-10T12:50:48;101005.13;;;16.83
76007;BMP280;64699;0.000;0.000;2023-05-10T12:53:14;100991.13;;;16.81
76007;BMP280;64699;0.000;0.000;2023-05-10T12:55:40;100996.59;;;16.92
76007;BMP280;64699;0.000;0.000;2023-05-10T12:58:06;100988.38;;;16.86
76007;BMP280;64699;0.000;0.000;2023-05-10T13:00:31;101004.84;;;16.86
76007;BMP280;64699;0.000;0.000;2023-05-10T13:02:56;100995.38;;;16.87
76007;BMP280;64699;0.000;0.000;2023-05-10T13:05:21;101000.84;;;16.87
76007;BMP280;64699;0.000;0.000;2023-05-10T13:07:46;101001.06;;;16.89
76007;BMP280;64699;0.000;0.000;2023-05-10T13:10:12;100993.59;;;16.84
76007;BMP280;64699;0.000;0.000;2023-05-10T13:12:37;100993.34;;;16.88
76007;BMP280;64699;0.000;0.000;2023-05-10T13:15:02;100986.88;;;16.85
76007;BMP280;64699;0.000;0.000;2023-05-10T13:17:28;100993.38;;;16.82
76007;BMP280;64699;0.000;0.000;2023-05-10T13:19:53;100993.88;;;16.81
76007;BMP280;64699;0.000;0.000;2023-05-10T13:22:18;101004.84;;;16.75
76007;BMP280;64699;0.000;0.000;2023-05-10T13:24:44;100989.41;;;16.72
76007;BMP280;64699;0.000;0.000;2023-05-10T13:27:09;100987.91;;;16.71
76007;BMP280;64699;0.000;0.000;2023-05-10T13:29:34;100993.41;;;16.71
76007;BMP280;64699;0.000;0.000;2023-05-10T13:31:59;100998.63;;;16.69
76007;BMP280;64699;0.000;0.000;2023-05-10T13:34:25;100978.69;;;16.69
76007;BMP280;64699;0.000;0.000;2023-05-10T13:36:50;100966.97;;;16.68
76007;BMP280;64699;0.000;0.000;2023-05-10T13:39:15;100986.19;;;16.68
76007;BMP280;64699;0.000;0.000;2023-05-10T13:41:41;100982.16;;;16.69
76007;BMP280;64699;0.000;0.000;2023-05-10T13:44:06;100987.44;;;16.67
76007;BMP280;64699;0.000;0.000;2023-05-10T13:46:31;100977.22;;;16.68
76007;BMP280;64699;0.000;0.000;2023-05-10T13:48:56;100976.44;;;16.67
76007;BMP280;64699;0.000;0.000;2023-05-10T13:51:22;100983.94;;;16.67
76007;BMP280;64699;0.000;0.000;2023-05-10T13:53:47;100969.47;;;16.66
76007;BMP280;64699;0.000;0.000;2023-05-10T13:56:12;100974.94;;;16.66
76007;BMP280;64699;0.000;0.000;2023-05-10T13:58:38;100963.97;;;16.66
76007;BMP280;64699;0.000;0.000;2023-05-10T14:01:03;100963.97;;;16.66
76007;BMP280;64699;0.000;0.000;2023-05-10T14:03:29;100967.50;;;16.67
76007;BMP280;64699;0.000;0.000;2023-05-10T14:05:54;100957.72;;;16.66
76007;BMP280;64699;0.000;0.000;2023-05-10T14:08:20;100955.75;;;16.66
76007;BMP280;64699;0.000;0.000;2023-05-10T14:10:45;100956.22;;;16.65
76007;BMP280;64699;0.000;0.000;2023-05-10T14:13:11;100957.00;;;16.65
76007;BMP280;64699;0.000;0.000;2023-05-10T14:15:37;100952.75;;;16.64
76007;BMP280;64699;0.000;0.000;2023-05-10T14:18:02;100954.25;;;16.65
76007;BMP280;64699;0.000;0.000;2023-05-10T14:20:27;100966.72;;;16.66
76007;BMP280;64699;0.000;0.000;2023-05-10T14:22:52;100958.50;;;16.66
76007;BMP280;64699;0.000;0.000;2023-05-10T14:25:18;100951.50;;;16.65
76007;BMP280;64699;0.000;0.000;2023-05-10T14:27:43;100961.72;;;16.65
76007;BMP280;64699;0.000;0.000;2023-05-10T14:30:09;100948.75;;;16.65
76007;BMP280;64699;0.000;0.000;2023-05-10T14:32:34;100968.69;;;16.66
76007;BMP280;64699;0.000;0.000;2023-05-10T14:35:01;100966.72;;;16.66
76007;BMP280;64699;0.000;0.000;2023-05-10T14:37:26;100970.72;;;16.65
76007;BMP280;64699;0.000;0.000;2023-05-10T14:39:52;100959.75;;;16.65
76007;BMP280;64699;0.000;0.000;2023-05-10T14:42:17;100962.47;;;16.65
76007;BMP280;64699;0.000;0.000;2023-05-10T14:44:42;100962.47;;;16.65